Williamsburg, MA (01096)

5:15 PM EDT on September 01, 2015 (GMT -0400)
Williamsburg-Conway Town Line | | Change Station
CLOSE
Current Station
Personal Weather Station
Location: Williamsburg, MA
Elevation: 860 ft
Nearby Weather Stations

Elev 860 ft 42.45 °N, 72.75 °W | Updated 12 seconds ago

Clear
Clear
77.2 °F
Feels Like 79 °F
N
0.0
Wind Variable Wind from North
Gusts 0.0 mph

Today
High -- | Low -- °F
--% Chance of Precip.
Yesterday
High -- | Low -- °F
Precip. -- in
6:15 AM 7:25 PM
Waning Gibbous, 86% visible
Pressure 30.01 in
Visibility 10.0 miles
Clouds Clear
Heat Index 79 °F
Dew Point 68 °F
Humidity 73%
Rainfall 0.00 in
Snow Depth Not available.
UV 1.0 out of 12
Pollen 9.80 out of 12
Air Quality Not available.
Flu Activity Not available.
METAR KBAF 012053Z 00000KT 10SM CLR 30/11 A3001 RMK AO2 SLP161 T03000106 56012
Pressure 30.01 in
Visibility 10.0 miles
Clouds Clear
Heat Index 79 °F
Dew Point 68 °F
Humidity 73%
Rainfall 0.00 in
Snow Depth Not available.
UV 1.0 out of 12
Pollen 9.80 out of 12
Air Quality Not available.
Flu Activity Not available.
METAR KBAF 012053Z 00000KT 10SM CLR 30/11 A3001 RMK AO2 SLP161 T03000106 56012

10-Day Weather Forecast

×

Almanac

Astronomy

Sep. 01, 2015 Rise Set
Actual Time
Civil Twilight
Nautical Twilight
Astronomical Twilight
Moon
Length of Visible Light
Length of Day
Tomorrow will be .
, % of the Moon is Illuminated

Today's Extremes

State Highs State Lows

Community

WunderPhotos

Upload Photos

1,851,617 photos uploaded!

WunderBlogs® & News

Nearby

Air Quality

  Air Quality AQ Index Pollutant
Not available.

Snow Depth

Station Depth Elevation

Earthquake Activity

City Distance Mag. Time & Date
Minimum magnitude displayed is 2.5.

Coastal Water Temperatures

Place Temperature

Stations

Nearby Weather Stations

Station Location Temp. Windchill Dew Point Humidity Wind Precip. Elev Updated Type